createdAt,value
2019-04-13T00:02:22.078Z,31.70
2019-04-13T00:05:33.348Z,31.80
2019-04-13T00:08:09.234Z,31.80
2019-04-13T00:11:06.472Z,31.90
2019-04-13T00:13:42.935Z,32.00
2019-04-13T00:16:16.802Z,32.10
2019-04-13T00:18:51.676Z,32.10
2019-04-13T00:21:26.058Z,32.20
2019-04-13T00:24:00.665Z,32.30
2019-04-13T00:26:35.002Z,32.40
2019-04-13T00:29:10.741Z,32.50
2019-04-13T00:31:45.449Z,32.60
2019-04-13T00:34:19.470Z,32.70
2019-04-13T00:36:54.241Z,32.80
2019-04-13T00:39:28.874Z,32.90
2019-04-13T00:42:03.323Z,33.00
2019-04-13T00:44:38.362Z,33.20
2019-04-13T00:47:13.303Z,33.20
2019-04-13T00:49:47.695Z,33.40
2019-04-13T00:52:22.069Z,33.50
2019-04-13T00:54:56.564Z,33.60
2019-04-13T00:57:31.161Z,33.70
2019-04-13T01:00:05.621Z,33.80
2019-04-13T01:02:39.840Z,33.90
2019-04-13T01:05:14.359Z,34.00
2019-04-13T01:07:48.995Z,34.10
2019-04-13T01:10:24.594Z,34.10
2019-04-13T01:12:59.312Z,34.20
2019-04-13T01:15:33.947Z,34.30
2019-04-13T01:18:08.449Z,34.40
2019-04-13T01:20:42.983Z,34.40
2019-04-13T01:23:17.803Z,34.50
2019-04-13T01:25:52.344Z,34.50
2019-04-13T01:28:26.760Z,34.60
2019-04-13T01:31:01.665Z,34.60
2019-04-13T01:33:36.237Z,34.60
2019-04-13T01:36:10.629Z,34.70
2019-04-13T01:38:45.443Z,34.70
2019-04-13T01:41:19.922Z,34.80
2019-04-13T01:43:54.215Z,34.80
2019-04-13T01:46:28.752Z,34.80
2019-04-13T01:49:03.909Z,34.80
2019-04-13T01:51:38.579Z,34.90
2019-04-13T01:54:13.240Z,34.90
2019-04-13T01:56:47.528Z,35.00
2019-04-13T01:59:21.969Z,35.00
2019-04-13T02:02:32.429Z,35.10
2019-04-13T02:05:24.014Z,35.20
2019-04-13T02:08:28.655Z,35.20
2019-04-13T02:11:08.712Z,35.30
2019-04-13T02:13:42.882Z,35.30
2019-04-13T02:16:20.766Z,35.30
2019-04-13T02:18:54.904Z,35.30
2019-04-13T02:21:29.810Z,35.30
2019-04-13T02:24:04.223Z,35.40
2019-04-13T02:26:38.488Z,35.40
2019-04-13T02:29:12.824Z,35.40
2019-04-13T02:31:47.540Z,35.50
2019-04-13T02:34:22.177Z,35.60
2019-04-13T02:36:57.098Z,35.70
2019-04-13T02:39:31.504Z,35.70
2019-04-13T02:42:05.755Z,35.80
2019-04-13T02:44:40.277Z,35.80
2019-04-13T02:47:14.491Z,35.90
2019-04-13T02:49:48.876Z,36.00
2019-04-13T02:52:25.101Z,36.10
2019-04-13T02:54:59.306Z,36.20
2019-04-13T02:57:34.325Z,36.30
2019-04-13T03:00:11.658Z,36.30
2019-04-13T03:02:45.272Z,36.40
2019-04-13T03:05:19.989Z,36.50
2019-04-13T03:07:54.326Z,36.60
2019-04-13T03:10:28.507Z,36.70
2019-04-13T03:13:02.982Z,36.70
2019-04-13T03:15:54.472Z,36.80
2019-04-13T03:18:33.997Z,36.90
2019-04-13T03:21:08.651Z,37.00
2019-04-13T03:23:43.414Z,37.00
2019-04-13T03:26:18.030Z,37.00
2019-04-13T03:28:52.258Z,37.10
2019-04-13T03:31:26.421Z,37.20
2019-04-13T03:34:00.793Z,37.20
2019-04-13T03:36:35.934Z,37.20
2019-04-13T03:39:11.608Z,37.20
2019-04-13T03:41:46.082Z,37.20
2019-04-13T03:44:20.382Z,37.20
2019-04-13T03:46:55.167Z,37.20
2019-04-13T03:49:29.865Z,37.30
2019-04-13T03:52:04.493Z,37.40
2019-04-13T03:54:38.858Z,37.30
2019-04-13T03:57:13.521Z,37.40
2019-04-13T03:59:48.080Z,37.40
2019-04-13T04:02:22.051Z,37.50
2019-04-13T04:04:56.571Z,37.50
2019-04-13T04:07:31.265Z,37.60
2019-04-13T04:10:05.541Z,37.70
2019-04-13T04:12:40.289Z,37.70
2019-04-13T04:15:16.502Z,37.80
2019-04-13T04:17:50.834Z,37.80
2019-04-13T04:20:25.373Z,37.80
2019-04-13T04:22:59.619Z,37.90
2019-04-13T04:25:34.183Z,37.90
2019-04-13T04:28:08.812Z,37.90
2019-04-13T04:30:42.854Z,37.90
2019-04-13T04:33:17.284Z,37.90
2019-04-13T04:35:51.812Z,38.00
2019-04-13T04:38:26.633Z,38.00
2019-04-13T04:41:02.079Z,38.00
2019-04-13T04:43:36.508Z,38.10
2019-04-13T04:46:11.100Z,38.20
2019-04-13T04:48:45.564Z,38.20
2019-04-13T04:51:20.107Z,38.30
2019-04-13T04:53:54.636Z,38.30
2019-04-13T04:56:30.364Z,38.40
2019-04-13T04:59:04.742Z,38.40
2019-04-13T05:01:39.110Z,38.40
2019-04-13T05:04:14.404Z,38.50
2019-04-13T05:06:48.980Z,38.50
2019-04-13T05:09:23.579Z,38.50
2019-04-13T05:11:57.897Z,38.50
2019-04-13T05:14:32.682Z,38.50
2019-04-13T05:17:07.505Z,38.50
2019-04-13T05:19:43.203Z,38.50
2019-04-13T05:22:26.099Z,38.50
2019-04-13T05:24:53.190Z,38.50
2019-04-13T05:27:27.591Z,38.40
2019-04-13T05:30:01.993Z,38.40
2019-04-13T05:32:36.489Z,38.40
2019-04-13T05:35:10.736Z,38.40
2019-04-13T05:37:45.127Z,38.40
2019-04-13T05:40:19.406Z,38.40
2019-04-13T05:42:54.029Z,38.30
2019-04-13T05:45:28.138Z,38.30
2019-04-13T05:48:03.384Z,38.30
2019-04-13T05:50:38.267Z,38.30
2019-04-13T05:53:12.699Z,38.20
2019-04-13T05:55:47.143Z,38.30
2019-04-13T05:58:21.728Z,38.30
2019-04-13T06:00:57.704Z,38.30
2019-04-13T06:03:31.710Z,38.30
2019-04-13T06:06:06.995Z,38.20
2019-04-13T06:08:41.681Z,38.20
2019-04-13T06:11:16.313Z,38.20
2019-04-13T06:13:50.563Z,38.20
2019-04-13T06:16:25.392Z,38.20
2019-04-13T06:19:01.049Z,38.20
2019-04-13T06:21:37.352Z,38.20
2019-04-13T06:24:12.230Z,38.20
2019-04-13T06:26:46.847Z,38.20
2019-04-13T06:29:22.527Z,38.20
2019-04-13T06:32:09.261Z,38.20
2019-04-13T06:35:01.369Z,38.20
2019-04-13T06:37:36.323Z,38.30
2019-04-13T06:40:10.874Z,38.30
2019-04-13T06:42:45.391Z,38.30
2019-04-13T06:45:19.471Z,38.30
2019-04-13T06:47:54.957Z,38.30
2019-04-13T06:50:30.034Z,38.30
2019-04-13T06:53:07.273Z,38.30
2019-04-13T06:55:40.433Z,38.30
2019-04-13T06:58:15.773Z,38.30
2019-04-13T07:00:50.686Z,38.30
2019-04-13T07:03:26.633Z,38.30
2019-04-13T07:06:01.224Z,38.30
2019-04-13T07:08:53.932Z,38.30
2019-04-13T07:11:37.106Z,38.30
2019-04-13T07:14:13.103Z,38.30
2019-04-13T07:16:54.659Z,38.20
2019-04-13T07:19:29.162Z,38.20
2019-04-13T07:22:03.878Z,38.10
2019-04-13T07:24:39.105Z,38.10
2019-04-13T07:27:13.783Z,38.10
2019-04-13T07:29:53.116Z,38.10
2019-04-13T07:32:26.360Z,38.10
2019-04-13T07:35:02.745Z,38.00
2019-04-13T07:37:37.408Z,38.00
2019-04-13T07:40:14.950Z,38.00
2019-04-13T07:42:49.774Z,37.90
2019-04-13T07:45:42.843Z,37.90
2019-04-13T07:48:39.737Z,37.90
2019-04-13T07:51:21.371Z,37.90
2019-04-13T07:53:56.764Z,37.80
2019-04-13T07:56:32.079Z,37.80
2019-04-13T07:59:07.159Z,37.80
2019-04-13T08:01:55.788Z,37.80
2019-04-13T08:04:19.897Z,37.80
2019-04-13T08:06:54.709Z,37.80
2019-04-13T08:09:29.701Z,37.80
2019-04-13T08:12:05.954Z,37.80
2019-04-13T08:14:40.483Z,37.80
2019-04-13T08:17:22.084Z,37.80
2019-04-13T08:20:08.489Z,37.80
2019-04-13T08:22:44.087Z,37.80
2019-04-13T08:25:18.600Z,37.80
2019-04-13T08:27:54.143Z,37.80
2019-04-13T08:30:31.279Z,37.80
2019-04-13T08:33:05.971Z,37.80
2019-04-13T08:35:42.647Z,37.80
2019-04-13T08:38:16.990Z,37.80
2019-04-13T08:40:51.584Z,37.80
2019-04-13T08:43:26.685Z,37.80
2019-04-13T08:46:01.450Z,37.80
2019-04-13T08:48:36.209Z,37.80
2019-04-13T08:51:10.643Z,37.80
2019-04-13T08:53:45.285Z,37.70
2019-04-13T08:56:20.017Z,37.80
2019-04-13T08:58:55.650Z,37.70
2019-04-13T09:01:30.294Z,37.70
2019-04-13T09:04:04.934Z,37.70
2019-04-13T09:06:39.462Z,37.60
2019-04-13T09:09:14.982Z,37.60
2019-04-13T09:11:49.830Z,37.60
2019-04-13T09:14:24.282Z,37.60
2019-04-13T09:17:00.008Z,37.60
2019-04-13T09:19:53.013Z,37.50
2019-04-13T09:22:27.996Z,37.50
2019-04-13T09:25:02.665Z,37.50
2019-04-13T09:27:40.366Z,37.40
2019-04-13T09:30:12.649Z,37.40
2019-04-13T09:32:47.101Z,37.40
2019-04-13T09:35:25.227Z,37.30
2019-04-13T09:37:57.613Z,37.30
2019-04-13T09:40:32.607Z,37.30
2019-04-13T09:43:08.310Z,37.30
2019-04-13T09:45:45.700Z,37.30
2019-04-13T09:48:21.285Z,37.20
2019-04-13T09:50:55.969Z,37.20
2019-04-13T09:53:30.722Z,37.20
2019-04-13T09:56:05.318Z,37.10
2019-04-13T09:58:39.687Z,37.10
2019-04-13T10:01:14.258Z,37.10
2019-04-13T10:03:49.164Z,37.10
2019-04-13T10:06:28.240Z,37.10
2019-04-13T10:09:03.011Z,37.00
2019-04-13T10:11:52.713Z,37.00
2019-04-13T10:14:43.637Z,36.90
2019-04-13T10:17:28.519Z,36.90
2019-04-13T10:20:03.554Z,36.80
2019-04-13T10:22:38.449Z,36.80
2019-04-13T10:25:13.373Z,36.70
2019-04-13T10:27:48.249Z,36.70
2019-04-13T10:30:22.695Z,36.70
2019-04-13T10:32:57.295Z,36.70
2019-04-13T10:35:31.843Z,36.60
2019-04-13T10:38:07.394Z,36.60
2019-04-13T10:40:42.790Z,36.50
2019-04-13T10:43:17.964Z,36.50
2019-04-13T10:46:23.339Z,36.40
2019-04-13T10:49:10.834Z,36.40
2019-04-13T10:52:01.294Z,36.30
2019-04-13T10:54:54.698Z,36.20
2019-04-13T10:57:29.341Z,36.20
2019-04-13T11:00:03.521Z,36.10
2019-04-13T11:02:38.240Z,36.10
2019-04-13T11:05:13.305Z,36.10
2019-04-13T11:07:48.000Z,36.00
2019-04-13T11:10:22.475Z,35.80
2019-04-13T11:12:57.174Z,35.80
2019-04-13T11:15:31.066Z,35.80
2019-04-13T11:18:05.236Z,35.70
2019-04-13T11:20:39.939Z,35.70
2019-04-13T11:23:14.631Z,35.60
2019-04-13T11:25:49.036Z,35.50
2019-04-13T11:28:23.402Z,35.40
2019-04-13T11:30:58.163Z,35.40
2019-04-13T11:33:32.697Z,35.30
2019-04-13T11:36:07.604Z,35.30
2019-04-13T11:38:42.999Z,35.20
2019-04-13T11:41:46.799Z,35.20
2019-04-13T11:44:39.232Z,35.10
2019-04-13T11:47:30.435Z,35.10
2019-04-13T11:50:04.811Z,35.00
2019-04-13T11:52:39.413Z,34.90
2019-04-13T11:55:13.831Z,34.80
2019-04-13T11:57:48.444Z,34.80
2019-04-13T12:00:55.971Z,34.80
2019-04-13T12:03:43.839Z,34.70
2019-04-13T12:06:27.071Z,34.70
2019-04-13T12:09:08.442Z,34.60
2019-04-13T12:12:07.206Z,34.50
2019-04-13T12:15:06.846Z,34.40
2019-04-13T12:18:00.056Z,34.40
2019-04-13T12:20:41.520Z,34.30
2019-04-13T12:23:17.181Z,34.20
2019-04-13T12:25:51.629Z,34.20
2019-04-13T12:28:26.381Z,34.20
2019-04-13T12:31:00.687Z,34.10
2019-04-13T12:33:35.528Z,34.10
2019-04-13T12:36:10.320Z,34.10
2019-04-13T12:38:50.070Z,34.00
2019-04-13T12:41:27.751Z,34.00
2019-04-13T12:44:02.298Z,34.00
2019-04-13T12:46:36.514Z,34.00
2019-04-13T12:49:11.268Z,34.00
2019-04-13T12:51:45.632Z,34.00
2019-04-13T12:54:20.248Z,34.00
2019-04-13T12:56:54.827Z,34.00
2019-04-13T12:59:29.071Z,34.00
2019-04-13T13:02:28.292Z,34.00
2019-04-13T13:05:20.827Z,33.90
2019-04-13T13:07:55.369Z,33.90
2019-04-13T13:10:29.861Z,33.90
2019-04-13T13:13:04.272Z,33.90
2019-04-13T13:15:41.919Z,33.90
2019-04-13T13:18:14.659Z,33.80
2019-04-13T13:20:49.121Z,33.80
2019-04-13T13:23:24.079Z,33.80
2019-04-13T13:25:59.022Z,33.80
2019-04-13T13:28:33.686Z,33.70
2019-04-13T13:31:08.126Z,33.70
2019-04-13T13:33:42.214Z,33.70
2019-04-13T13:36:19.704Z,33.70
2019-04-13T13:38:53.716Z,33.70
2019-04-13T13:41:28.185Z,33.70
2019-04-13T13:44:03.515Z,33.70
2019-04-13T13:46:37.983Z,33.70
2019-04-13T13:49:13.353Z,33.70
2019-04-13T13:51:55.801Z,33.70
2019-04-13T13:54:23.482Z,33.70
2019-04-13T13:57:00.273Z,33.60
2019-04-13T13:59:34.333Z,33.60
2019-04-13T14:02:22.273Z,33.60
2019-04-13T14:05:00.607Z,33.60
2019-04-13T14:07:34.940Z,33.60
2019-04-13T14:10:27.478Z,33.60
2019-04-13T14:13:02.003Z,33.50
2019-04-13T14:15:40.634Z,33.50
2019-04-13T14:18:14.085Z,33.50
2019-04-13T14:20:48.861Z,33.60
2019-04-13T14:23:23.902Z,33.50
2019-04-13T14:25:58.718Z,33.50
2019-04-13T14:28:33.002Z,33.50
2019-04-13T14:31:07.599Z,33.50
2019-04-13T14:33:41.793Z,33.40
2019-04-13T14:36:16.340Z,33.40
2019-04-13T14:38:52.552Z,33.40
2019-04-13T14:41:27.178Z,33.50
2019-04-13T14:44:01.731Z,33.50
2019-04-13T14:46:36.185Z,33.40
2019-04-13T14:49:11.916Z,33.40
2019-04-13T14:51:46.856Z,33.40
2019-04-13T14:54:20.596Z,33.30
2019-04-13T14:56:54.971Z,33.30
2019-04-13T14:59:29.548Z,33.30
2019-04-13T15:02:04.008Z,33.30
2019-04-13T15:04:40.797Z,33.30
2019-04-13T15:07:14.275Z,33.30
2019-04-13T15:09:52.475Z,33.30
2019-04-13T15:12:24.722Z,33.30
2019-04-13T15:14:59.178Z,33.30
2019-04-13T15:17:37.695Z,33.30
2019-04-13T15:20:16.725Z,33.20
2019-04-13T15:22:49.771Z,33.20
2019-04-13T15:25:24.636Z,33.30
2019-04-13T15:28:00.067Z,33.20
2019-04-13T15:30:36.074Z,33.20
2019-04-13T15:33:12.573Z,33.20
2019-04-13T15:35:48.352Z,33.20
2019-04-13T15:38:23.708Z,33.20
2019-04-13T15:41:01.364Z,33.20
2019-04-13T15:43:36.011Z,33.10
2019-04-13T15:46:09.374Z,33.10
2019-04-13T15:48:43.666Z,33.10
2019-04-13T15:51:18.187Z,33.10
2019-04-13T15:53:53.744Z,33.10
2019-04-13T15:56:29.389Z,33.10
2019-04-13T15:59:03.652Z,33.10
2019-04-13T16:01:38.846Z,33.10
2019-04-13T16:04:14.076Z,33.10
2019-04-13T16:06:48.682Z,33.00
2019-04-13T16:09:57.611Z,33.00
2019-04-13T16:12:38.537Z,33.00
2019-04-13T16:15:12.631Z,33.00
2019-04-13T16:17:46.976Z,33.00
2019-04-13T16:20:22.858Z,32.90
2019-04-13T16:22:57.914Z,32.90
2019-04-13T16:25:33.663Z,32.90
2019-04-13T16:28:29.232Z,32.90
2019-04-13T16:31:24.892Z,32.90
2019-04-13T16:34:16.100Z,32.90
2019-04-13T16:37:00.561Z,32.90
2019-04-13T16:39:35.508Z,32.80
2019-04-13T16:42:16.275Z,32.90
2019-04-13T16:45:11.071Z,32.80
2019-04-13T16:48:04.661Z,32.80
2019-04-13T16:50:47.233Z,32.80
2019-04-13T16:53:39.387Z,32.80
2019-04-13T16:56:25.174Z,32.80
2019-04-13T16:59:15.767Z,32.80
2019-04-13T17:02:21.600Z,32.80
2019-04-13T17:05:05.737Z,32.80
2019-04-13T17:07:41.099Z,32.80
2019-04-13T17:10:17.059Z,32.70
2019-04-13T17:12:52.932Z,32.70
2019-04-13T17:15:27.723Z,32.70
2019-04-13T17:18:03.610Z,32.70
2019-04-13T17:20:59.895Z,32.70
2019-04-13T17:23:56.297Z,32.70
2019-04-13T17:26:40.093Z,32.70
2019-04-13T17:29:36.015Z,32.70
2019-04-13T17:32:29.221Z,32.60
2019-04-13T17:35:07.188Z,32.60
2019-04-13T17:37:42.034Z,32.60
2019-04-13T17:40:17.794Z,32.60
2019-04-13T17:43:13.862Z,32.60
2019-04-13T17:46:13.605Z,32.60
2019-04-13T17:49:13.343Z,32.60
2019-04-13T17:52:04.835Z,32.50
2019-04-13T17:54:53.889Z,32.50
2019-04-13T17:57:56.053Z,32.60
2019-04-13T18:00:47.318Z,32.50
2019-04-13T18:03:40.740Z,32.50
2019-04-13T18:06:33.634Z,32.50
2019-04-13T18:09:25.709Z,32.50
2019-04-13T18:12:37.499Z,32.50
2019-04-13T18:15:21.749Z,32.50
2019-04-13T18:18:08.862Z,32.40
2019-04-13T18:20:44.650Z,32.50
2019-04-13T18:23:19.196Z,32.50
2019-04-13T18:25:56.196Z,32.40
2019-04-13T18:28:29.656Z,32.40
2019-04-13T18:31:04.362Z,32.50
2019-04-13T18:33:39.066Z,32.50
2019-04-13T18:36:13.560Z,32.50
2019-04-13T18:38:48.303Z,32.50
2019-04-13T18:41:24.368Z,32.50
2019-04-13T18:43:58.994Z,32.40
2019-04-13T18:46:34.112Z,32.40
2019-04-13T18:49:09.516Z,32.40
2019-04-13T18:51:44.769Z,32.40
2019-04-13T18:54:20.342Z,32.40
2019-04-13T18:56:56.029Z,32.40
2019-04-13T18:59:31.496Z,32.40
2019-04-13T19:02:06.139Z,32.40
2019-04-13T19:04:40.342Z,32.30
2019-04-13T19:07:14.692Z,32.30
2019-04-13T19:09:49.952Z,32.30
2019-04-13T19:12:24.331Z,32.30
2019-04-13T19:15:00.003Z,32.30
2019-04-13T19:17:34.132Z,32.30
2019-04-13T19:20:08.424Z,32.30
2019-04-13T19:22:44.226Z,32.30
2019-04-13T19:25:18.728Z,32.20
2019-04-13T19:27:53.585Z,32.20
2019-04-13T19:30:28.326Z,32.20
2019-04-13T19:33:02.599Z,32.20
2019-04-13T19:35:36.697Z,32.20
2019-04-13T19:38:11.035Z,32.10
2019-04-13T19:40:45.274Z,32.10
2019-04-13T19:43:19.791Z,32.10
2019-04-13T19:45:54.404Z,32.10
2019-04-13T19:48:28.965Z,32.10
2019-04-13T19:51:03.665Z,32.10
2019-04-13T19:53:57.530Z,32.10
2019-04-13T19:56:32.457Z,32.00
2019-04-13T19:59:06.685Z,32.00
2019-04-13T20:01:41.260Z,32.00
2019-04-13T20:04:15.857Z,32.00
2019-04-13T20:06:50.241Z,32.00
2019-04-13T20:09:24.752Z,32.00
2019-04-13T20:12:00.124Z,32.00
2019-04-13T20:14:35.136Z,32.00
2019-04-13T20:17:09.910Z,32.00
2019-04-13T20:19:44.074Z,32.00
2019-04-13T20:22:17.926Z,31.90
2019-04-13T20:24:52.384Z,31.90
2019-04-13T20:27:26.829Z,31.90
2019-04-13T20:30:02.224Z,31.90
2019-04-13T20:32:36.948Z,31.90
2019-04-13T20:35:11.136Z,31.90
2019-04-13T20:37:46.676Z,31.90
2019-04-13T20:40:36.175Z,31.90
2019-04-13T20:43:11.759Z,31.90
2019-04-13T20:45:45.826Z,31.90
2019-04-13T20:48:20.673Z,31.90
2019-04-13T20:50:55.269Z,31.90
2019-04-13T20:53:31.061Z,31.80
2019-04-13T20:56:05.546Z,31.80
2019-04-13T20:58:40.262Z,31.80
2019-04-13T21:01:14.785Z,31.80
2019-04-13T21:03:49.200Z,31.80
2019-04-13T21:06:24.001Z,31.80
2019-04-13T21:08:59.301Z,31.80
2019-04-13T21:11:33.644Z,31.80
2019-04-13T21:14:16.535Z,31.80
2019-04-13T21:16:43.572Z,31.70
2019-04-13T21:19:17.803Z,31.80
2019-04-13T21:21:54.149Z,31.70
2019-04-13T21:24:28.571Z,31.70
2019-04-13T21:27:03.215Z,31.70
2019-04-13T21:29:37.343Z,31.60
2019-04-13T21:32:12.172Z,31.60
2019-04-13T21:34:48.201Z,31.60
2019-04-13T21:37:23.089Z,31.60
2019-04-13T21:39:59.053Z,31.60
2019-04-13T21:42:33.687Z,31.60
2019-04-13T21:45:08.250Z,31.60
2019-04-13T21:47:42.666Z,31.60
2019-04-13T21:50:56.716Z,31.60
2019-04-13T21:53:37.688Z,31.60
2019-04-13T21:56:12.283Z,31.60
2019-04-13T21:58:47.675Z,31.60
2019-04-13T22:01:36.810Z,31.60
2019-04-13T22:04:11.222Z,31.60
2019-04-13T22:06:45.439Z,31.70
2019-04-13T22:09:20.202Z,31.70
2019-04-13T22:11:54.339Z,31.70
2019-04-13T22:14:39.353Z,31.70
2019-04-13T22:17:05.754Z,31.70
2019-04-13T22:19:40.116Z,31.70
2019-04-13T22:22:14.668Z,31.70
2019-04-13T22:24:50.396Z,31.60
2019-04-13T22:27:27.119Z,31.60
2019-04-13T22:30:03.748Z,31.60
2019-04-13T22:33:02.519Z,31.50
2019-04-13T22:35:41.074Z,31.50
2019-04-13T22:38:15.532Z,31.40
2019-04-13T22:40:50.104Z,31.50
2019-04-13T22:43:24.228Z,31.40
2019-04-13T22:45:59.863Z,31.40
2019-04-13T22:48:50.701Z,31.40
2019-04-13T22:51:37.952Z,31.40
2019-04-13T22:54:47.387Z,31.40
2019-04-13T22:57:32.671Z,31.30
2019-04-13T23:00:10.462Z,31.40
2019-04-13T23:02:52.156Z,31.40
2019-04-13T23:05:26.387Z,31.30
2019-04-13T23:08:03.024Z,31.40
2019-04-13T23:10:37.761Z,31.30
2019-04-13T23:13:12.483Z,31.40
2019-04-13T23:15:47.189Z,31.40
2019-04-13T23:18:21.904Z,31.40
2019-04-13T23:20:56.468Z,31.40
2019-04-13T23:23:31.139Z,31.40
2019-04-13T23:26:06.355Z,31.40
2019-04-13T23:28:40.900Z,31.40
2019-04-13T23:31:15.310Z,31.40
2019-04-13T23:33:49.682Z,31.40
2019-04-13T23:36:24.571Z,31.40
2019-04-13T23:38:59.480Z,31.40
2019-04-13T23:41:34.692Z,31.40
2019-04-13T23:44:11.243Z,31.50
2019-04-13T23:46:46.164Z,31.50
2019-04-13T23:49:20.972Z,31.50
2019-04-13T23:51:56.049Z,31.60
2019-04-13T23:54:30.545Z,31.60
2019-04-13T23:57:20.802Z,31.60
